createdAt,value
2023-02-15T00:00:29.974Z,100.00
2023-02-15T00:02:57.606Z,100.00
2023-02-15T00:05:25.285Z,100.00
2023-02-15T00:07:52.905Z,100.00
2023-02-15T00:10:20.645Z,100.00
2023-02-15T00:12:49.571Z,100.00
2023-02-15T00:15:17.301Z,100.00
2023-02-15T00:17:45.472Z,100.00
2023-02-15T00:20:13.582Z,100.00
2023-02-15T00:22:41.199Z,100.00
2023-02-15T00:25:09.102Z,100.00
2023-02-15T00:27:36.818Z,100.00
2023-02-15T00:30:09.950Z,100.00
2023-02-15T00:32:43.392Z,100.00
2023-02-15T00:35:11.615Z,100.00
2023-02-15T00:37:39.465Z,100.00
2023-02-15T00:40:08.531Z,100.00
2023-02-15T00:42:36.233Z,100.00
2023-02-15T00:45:03.892Z,100.00
2023-02-15T00:47:32.789Z,100.00
2023-02-15T00:50:00.536Z,100.00
2023-02-15T00:52:28.183Z,100.00
2023-02-15T00:54:55.725Z,100.00
2023-02-15T00:57:23.318Z,100.00
2023-02-15T00:59:50.930Z,100.00
2023-02-15T01:02:18.528Z,100.00
2023-02-15T01:04:47.443Z,100.00
2023-02-15T01:07:15.267Z,100.00
2023-02-15T01:09:42.828Z,100.00
2023-02-15T01:12:10.865Z,100.00
2023-02-15T01:14:38.495Z,100.00
2023-02-15T01:17:06.024Z,100.00
2023-02-15T01:19:35.124Z,100.00
2023-02-15T01:22:04.510Z,100.00
2023-02-15T01:24:32.110Z,100.00
2023-02-15T01:26:59.710Z,100.00
2023-02-15T01:29:27.365Z,100.00
2023-02-15T01:31:55.346Z,100.00
2023-02-15T01:34:22.995Z,100.00
2023-02-15T01:36:50.803Z,100.00
2023-02-15T01:39:20.880Z,100.00
2023-02-15T01:41:48.466Z,100.00
2023-02-15T01:44:48.207Z,100.00
2023-02-15T01:47:19.655Z,100.00
2023-02-15T01:49:49.372Z,100.00
2023-02-15T01:52:20.155Z,100.00
2023-02-15T01:54:49.831Z,100.00
2023-02-15T01:57:26.332Z,100.00
2023-02-15T02:00:02.078Z,100.00
2023-02-15T02:02:30.120Z,100.00
2023-02-15T02:05:04.149Z,100.00
2023-02-15T02:07:35.124Z,100.00
2023-02-15T02:10:05.390Z,100.00
2023-02-15T02:12:33.751Z,100.00
2023-02-15T02:15:01.639Z,100.00
2023-02-15T02:17:43.098Z,100.00
2023-02-15T02:20:28.755Z,100.00
2023-02-15T02:23:25.512Z,100.00
2023-02-15T02:26:34.235Z,100.00
2023-02-15T02:29:38.317Z,100.00
2023-02-15T02:32:45.674Z,100.00
2023-02-15T02:35:20.957Z,100.00
2023-02-15T02:37:57.248Z,100.00
2023-02-15T02:40:32.248Z,100.00
2023-02-15T02:43:07.324Z,100.00
2023-02-15T02:45:43.303Z,99.59
2023-02-15T02:48:17.854Z,100.00
2023-02-15T02:50:49.542Z,100.00
2023-02-15T02:53:19.579Z,100.00
2023-02-15T02:55:51.176Z,100.00
2023-02-15T02:58:25.457Z,100.00
2023-02-15T03:00:56.651Z,100.00
2023-02-15T03:03:29.089Z,100.00
2023-02-15T03:06:02.275Z,100.00
2023-02-15T03:08:37.745Z,100.00
2023-02-15T03:11:06.606Z,100.00
2023-02-15T03:13:35.457Z,100.00
2023-02-15T03:16:26.327Z,100.00
2023-02-15T03:18:59.042Z,100.00
2023-02-15T03:21:36.186Z,100.00
2023-02-15T03:24:10.290Z,100.00
2023-02-15T03:26:41.236Z,100.00
2023-02-15T03:29:10.419Z,100.00
2023-02-15T03:31:42.060Z,100.00
2023-02-15T03:34:13.370Z,100.00
2023-02-15T03:36:48.305Z,100.00
2023-02-15T03:39:23.080Z,100.00
2023-02-15T03:42:00.256Z,98.90
2023-02-15T03:44:31.097Z,99.17
2023-02-15T03:47:05.986Z,98.37
2023-02-15T03:49:41.390Z,100.00
2023-02-15T03:52:12.305Z,99.90
2023-02-15T03:54:44.068Z,100.00
2023-02-15T03:57:32.356Z,99.52
2023-02-15T04:00:18.322Z,99.01
2023-02-15T04:02:55.081Z,99.16
2023-02-15T04:05:22.621Z,100.00
2023-02-15T04:07:51.478Z,100.00
2023-02-15T04:10:36.929Z,98.67
2023-02-15T04:13:04.551Z,98.52
2023-02-15T04:15:49.802Z,99.15
2023-02-15T04:18:17.360Z,99.06
2023-02-15T04:21:03.888Z,98.09
2023-02-15T04:23:52.024Z,98.63
2023-02-15T04:26:19.728Z,100.00
2023-02-15T04:28:47.566Z,100.00
2023-02-15T04:31:15.240Z,100.00
2023-02-15T04:33:44.664Z,100.00
2023-02-15T04:36:14.384Z,100.00
2023-02-15T04:38:43.184Z,100.00
2023-02-15T04:41:13.239Z,100.00
2023-02-15T04:43:40.954Z,100.00
2023-02-15T04:46:10.922Z,100.00
2023-02-15T04:48:38.497Z,100.00
2023-02-15T04:51:08.623Z,100.00
2023-02-15T04:53:36.565Z,100.00
2023-02-15T04:56:08.266Z,100.00
2023-02-15T04:58:36.062Z,100.00
2023-02-15T05:01:03.677Z,100.00
2023-02-15T05:03:31.239Z,100.00
2023-02-15T05:05:58.859Z,100.00
2023-02-15T05:08:26.527Z,100.00
2023-02-15T05:10:54.255Z,100.00
2023-02-15T05:13:23.077Z,100.00
2023-02-15T05:15:51.489Z,100.00
2023-02-15T05:18:20.555Z,100.00
2023-02-15T05:20:48.261Z,100.00
2023-02-15T05:23:16.452Z,100.00
2023-02-15T05:26:06.450Z,100.00
2023-02-15T05:28:38.861Z,100.00
2023-02-15T05:31:09.044Z,100.00
2023-02-15T05:33:36.975Z,100.00
2023-02-15T05:36:05.717Z,100.00
2023-02-15T05:38:37.571Z,100.00
2023-02-15T05:41:05.383Z,100.00
2023-02-15T05:43:33.544Z,100.00
2023-02-15T05:46:03.962Z,100.00
2023-02-15T05:48:32.704Z,100.00
2023-02-15T05:51:01.790Z,100.00
2023-02-15T05:53:30.649Z,100.00
2023-02-15T05:56:01.555Z,100.00
2023-02-15T05:58:30.903Z,100.00
2023-02-15T06:00:58.765Z,100.00
2023-02-15T06:03:29.495Z,100.00
2023-02-15T06:05:57.114Z,100.00
2023-02-15T06:08:24.662Z,100.00
2023-02-15T06:10:52.607Z,100.00
2023-02-15T06:13:20.089Z,100.00
2023-02-15T06:15:47.662Z,100.00
2023-02-15T06:18:15.203Z,100.00
2023-02-15T06:20:46.363Z,100.00
2023-02-15T06:23:14.269Z,100.00
2023-02-15T06:25:42.158Z,100.00
2023-02-15T06:28:09.765Z,100.00
2023-02-15T06:30:39.517Z,100.00
2023-02-15T06:33:07.186Z,100.00
2023-02-15T06:35:34.851Z,100.00
2023-02-15T06:38:03.979Z,100.00
2023-02-15T06:40:31.564Z,100.00
2023-02-15T06:43:02.978Z,100.00
2023-02-15T06:45:31.322Z,100.00
2023-02-15T06:47:58.888Z,100.00
2023-02-15T06:50:26.397Z,100.00
2023-02-15T06:52:58.074Z,100.00
2023-02-15T06:55:27.690Z,100.00
2023-02-15T06:57:55.277Z,100.00
2023-02-15T07:00:24.175Z,100.00
2023-02-15T07:02:57.180Z,100.00
2023-02-15T07:05:25.402Z,100.00
2023-02-15T07:07:53.009Z,100.00
2023-02-15T07:10:20.742Z,100.00
2023-02-15T07:12:48.756Z,100.00
2023-02-15T07:15:18.531Z,100.00
2023-02-15T07:17:46.697Z,100.00
2023-02-15T07:20:17.194Z,100.00
2023-02-15T07:22:44.871Z,100.00
2023-02-15T07:25:14.032Z,100.00
2023-02-15T07:27:42.311Z,100.00
2023-02-15T07:30:13.276Z,100.00
2023-02-15T07:33:04.597Z,100.00
2023-02-15T07:35:33.420Z,100.00
2023-02-15T07:38:01.037Z,100.00
2023-02-15T07:40:28.964Z,100.00
2023-02-15T07:43:00.508Z,100.00
2023-02-15T07:45:32.985Z,100.00
2023-02-15T07:48:05.350Z,100.00
2023-02-15T07:50:33.720Z,100.00
2023-02-15T07:53:03.667Z,100.00
2023-02-15T07:55:34.107Z,100.00
2023-02-15T07:58:01.705Z,100.00
2023-02-15T08:00:30.708Z,100.00
2023-02-15T08:03:18.002Z,100.00
2023-02-15T08:05:46.649Z,100.00
2023-02-15T08:08:30.838Z,100.00
2023-02-15T08:11:21.431Z,100.00
2023-02-15T08:13:57.076Z,100.00
2023-02-15T08:16:28.354Z,100.00
2023-02-15T08:19:01.999Z,100.00
2023-02-15T08:21:31.254Z,100.00
2023-02-15T08:23:59.289Z,100.00
2023-02-15T08:26:28.040Z,100.00
2023-02-15T08:28:55.572Z,99.95
2023-02-15T08:31:26.144Z,97.70
2023-02-15T08:33:56.322Z,98.41
2023-02-15T08:36:27.289Z,99.44
2023-02-15T08:38:54.856Z,100.00
2023-02-15T08:41:24.200Z,100.00
2023-02-15T08:43:54.555Z,100.00
2023-02-15T08:46:23.536Z,100.00
2023-02-15T08:48:51.819Z,99.07
2023-02-15T08:51:24.018Z,97.35
2023-02-15T08:53:55.941Z,98.04
2023-02-15T08:56:25.105Z,95.82
2023-02-15T08:58:52.649Z,96.01
2023-02-15T09:01:23.379Z,96.93
2023-02-15T09:03:54.365Z,96.33
2023-02-15T09:06:23.494Z,95.64
2023-02-15T09:08:52.756Z,94.97
2023-02-15T09:11:27.175Z,94.41
2023-02-15T09:13:57.234Z,94.46
2023-02-15T09:16:26.532Z,93.54
2023-02-15T09:18:56.028Z,94.50
2023-02-15T09:21:25.843Z,93.27
2023-02-15T09:23:58.806Z,93.97
2023-02-15T09:26:35.330Z,94.59
2023-02-15T09:29:04.475Z,94.76
2023-02-15T09:31:34.426Z,95.23
2023-02-15T09:34:03.019Z,93.84
2023-02-15T09:36:34.984Z,94.23
2023-02-15T09:39:11.584Z,91.17
2023-02-15T09:42:02.480Z,100.00
2023-02-15T09:44:42.069Z,94.33
2023-02-15T09:47:26.690Z,93.84
2023-02-15T09:50:01.626Z,92.31
2023-02-15T09:52:56.499Z,92.38
2023-02-15T09:55:43.158Z,92.94
2023-02-15T09:58:20.688Z,92.45
2023-02-15T10:00:56.695Z,93.36
2023-02-15T10:03:41.147Z,92.43
2023-02-15T10:06:25.150Z,91.96
2023-02-15T10:09:04.054Z,92.06
2023-02-15T10:11:50.848Z,91.97
2023-02-15T10:14:38.737Z,90.71
2023-02-15T10:17:20.484Z,88.09
2023-02-15T10:20:06.391Z,88.05
2023-02-15T10:22:47.513Z,87.27
2023-02-15T10:25:29.529Z,88.07
2023-02-15T10:28:06.551Z,87.27
2023-02-15T10:30:43.750Z,88.20
2023-02-15T10:33:23.399Z,86.65
2023-02-15T10:35:59.127Z,86.28
2023-02-15T10:38:37.844Z,86.58
2023-02-15T10:41:19.816Z,87.21
2023-02-15T10:44:07.328Z,86.82
2023-02-15T10:46:52.692Z,86.56
2023-02-15T10:49:42.022Z,87.96
2023-02-15T10:52:24.471Z,88.37
2023-02-15T10:55:02.053Z,88.58
2023-02-15T10:57:38.445Z,88.40
2023-02-15T11:00:14.806Z,87.51
2023-02-15T11:03:04.350Z,85.46
2023-02-15T11:05:42.287Z,85.08
2023-02-15T11:08:14.029Z,87.16
2023-02-15T11:10:47.913Z,87.26
2023-02-15T11:13:18.733Z,87.41
2023-02-15T11:15:53.673Z,88.15
2023-02-15T11:18:27.049Z,88.52
2023-02-15T11:20:58.841Z,89.33
2023-02-15T11:23:31.396Z,88.73
2023-02-15T11:26:02.326Z,88.90
2023-02-15T11:28:35.849Z,88.59
2023-02-15T11:31:15.349Z,89.49
2023-02-15T11:33:48.374Z,89.82
2023-02-15T11:36:25.157Z,88.94
2023-02-15T11:38:58.912Z,88.62
2023-02-15T11:41:30.458Z,88.72
2023-02-15T11:44:05.081Z,87.91
2023-02-15T11:46:34.138Z,86.30
2023-02-15T11:49:02.614Z,85.67
2023-02-15T11:51:31.044Z,86.59
2023-02-15T11:53:58.707Z,87.37
2023-02-15T11:56:27.861Z,94.61
2023-02-15T11:59:05.397Z,91.48
2023-02-15T12:01:37.271Z,90.02
2023-02-15T12:04:11.518Z,87.11
2023-02-15T12:06:44.917Z,84.44
2023-02-15T12:09:23.379Z,82.80
2023-02-15T12:11:51.349Z,83.01
2023-02-15T12:14:18.894Z,84.56
2023-02-15T12:16:51.992Z,86.05
2023-02-15T12:19:40.776Z,84.42
2023-02-15T12:22:20.095Z,85.24
2023-02-15T12:24:49.939Z,82.88
2023-02-15T12:27:19.849Z,83.60
2023-02-15T12:29:52.973Z,85.09
2023-02-15T12:32:27.190Z,85.90
2023-02-15T12:35:01.576Z,85.49
2023-02-15T12:37:32.869Z,83.95
2023-02-15T12:40:01.893Z,83.61
2023-02-15T12:42:42.456Z,83.38
2023-02-15T12:45:25.575Z,83.64
2023-02-15T12:48:19.205Z,83.38
2023-02-15T12:50:54.687Z,85.26
2023-02-15T12:53:25.176Z,86.14
2023-02-15T12:55:55.897Z,85.89
2023-02-15T12:58:26.242Z,83.68
2023-02-15T13:01:14.631Z,83.32
2023-02-15T13:03:57.730Z,85.02
2023-02-15T13:06:26.185Z,84.18
2023-02-15T13:08:56.633Z,85.55
2023-02-15T13:11:31.107Z,83.21
2023-02-15T13:14:03.209Z,82.35
2023-02-15T13:16:34.460Z,81.83
2023-02-15T13:19:07.979Z,81.92
2023-02-15T13:21:40.534Z,83.25
2023-02-15T13:24:17.406Z,82.08
2023-02-15T13:26:46.504Z,80.21
2023-02-15T13:29:20.457Z,80.16
2023-02-15T13:31:48.514Z,80.64
2023-02-15T13:34:27.336Z,81.73
2023-02-15T13:37:03.398Z,83.94
2023-02-15T13:39:37.562Z,82.68
2023-02-15T13:42:16.643Z,82.16
2023-02-15T13:45:11.100Z,82.15
2023-02-15T13:47:51.272Z,80.82
2023-02-15T13:50:36.586Z,80.82
2023-02-15T13:53:25.082Z,79.04
2023-02-15T13:55:55.421Z,80.57
2023-02-15T13:58:53.040Z,79.75
2023-02-15T14:01:30.267Z,82.60
2023-02-15T14:04:20.947Z,81.98
2023-02-15T14:07:11.646Z,80.89
2023-02-15T14:09:49.249Z,81.73
2023-02-15T14:12:37.162Z,81.20
2023-02-15T14:15:14.260Z,81.36
2023-02-15T14:17:55.727Z,80.86
2023-02-15T14:20:31.370Z,80.62
2023-02-15T14:23:13.049Z,80.57
2023-02-15T14:25:47.159Z,79.21
2023-02-15T14:28:17.709Z,79.43
2023-02-15T14:30:49.135Z,80.28
2023-02-15T14:33:34.938Z,80.74
2023-02-15T14:36:07.322Z,81.61
2023-02-15T14:38:56.228Z,82.43
2023-02-15T14:41:29.945Z,81.58
2023-02-15T14:44:09.251Z,81.83
2023-02-15T14:46:43.209Z,83.42
2023-02-15T14:49:14.648Z,83.87
2023-02-15T14:52:08.088Z,84.32
2023-02-15T14:54:57.951Z,83.73
2023-02-15T14:57:34.644Z,83.67
2023-02-15T15:00:08.037Z,83.58
2023-02-15T15:02:49.045Z,83.34
2023-02-15T15:05:21.066Z,83.64
2023-02-15T15:07:51.965Z,83.86
2023-02-15T15:10:41.249Z,85.61
2023-02-15T15:13:38.862Z,87.20
2023-02-15T15:16:27.848Z,85.99
2023-02-15T15:18:56.060Z,85.32
2023-02-15T15:21:55.273Z,84.22
2023-02-15T15:24:55.381Z,84.68
2023-02-15T15:27:44.316Z,86.44
2023-02-15T15:30:51.225Z,86.86
2023-02-15T15:33:40.227Z,86.18
2023-02-15T15:36:27.819Z,85.35
2023-02-15T15:39:07.937Z,87.00
2023-02-15T15:41:43.556Z,86.53
2023-02-15T15:44:49.429Z,86.44
2023-02-15T15:47:31.992Z,86.01
2023-02-15T15:50:01.357Z,87.25
2023-02-15T15:52:33.146Z,87.70
2023-02-15T15:55:06.689Z,87.81
2023-02-15T15:57:36.771Z,87.74
2023-02-15T16:00:25.319Z,87.73
2023-02-15T16:02:53.180Z,88.43
2023-02-15T16:05:21.305Z,88.31
2023-02-15T16:07:50.386Z,88.77
2023-02-15T16:10:23.812Z,88.72
2023-02-15T16:12:52.832Z,90.37
2023-02-15T16:15:26.148Z,90.95
2023-02-15T16:17:57.786Z,89.90
2023-02-15T16:20:27.540Z,90.11
2023-02-15T16:23:06.039Z,90.41
2023-02-15T16:25:42.394Z,91.00
2023-02-15T16:28:13.230Z,91.64
2023-02-15T16:30:43.593Z,92.90
2023-02-15T16:33:13.710Z,92.12
2023-02-15T16:35:43.360Z,93.49
2023-02-15T16:38:12.190Z,93.72
2023-02-15T16:40:48.641Z,93.49
2023-02-15T16:43:21.055Z,95.94
2023-02-15T16:45:50.297Z,97.30
2023-02-15T16:48:23.200Z,98.06
2023-02-15T16:50:56.427Z,96.81
2023-02-15T16:53:27.188Z,94.34
2023-02-15T16:56:00.206Z,94.94
2023-02-15T16:58:40.077Z,95.56
2023-02-15T17:04:13.792Z,96.53
2023-02-15T17:06:41.611Z,96.91
2023-02-15T17:09:19.563Z,96.78
2023-02-15T17:11:47.720Z,95.57
2023-02-15T17:14:22.825Z,95.00
2023-02-15T17:16:54.541Z,94.38
2023-02-15T17:19:27.463Z,95.41
2023-02-15T17:21:57.133Z,96.17
2023-02-15T17:24:35.340Z,95.61
2023-02-15T17:27:07.282Z,95.53
2023-02-15T17:29:38.929Z,95.08
2023-02-15T17:32:16.832Z,96.47
2023-02-15T17:35:09.156Z,96.48
2023-02-15T17:37:48.495Z,97.47
2023-02-15T17:40:24.462Z,97.07
2023-02-15T17:42:52.876Z,96.61
2023-02-15T17:45:21.975Z,96.89
2023-02-15T17:47:51.238Z,97.31
2023-02-15T17:50:23.381Z,98.27
2023-02-15T17:52:53.483Z,99.30
2023-02-15T17:55:39.856Z,99.51
2023-02-15T17:58:10.183Z,99.09
2023-02-15T18:00:59.635Z,99.79
2023-02-15T18:03:54.051Z,99.85
2023-02-15T18:06:39.299Z,99.76
2023-02-15T18:09:29.967Z,99.24
2023-02-15T18:11:57.636Z,98.97
2023-02-15T18:14:25.458Z,97.90
2023-02-15T18:16:53.772Z,97.06
2023-02-15T18:19:25.122Z,97.03
2023-02-15T18:21:55.634Z,97.12
2023-02-15T18:24:25.275Z,97.19
2023-02-15T18:26:54.070Z,98.17
2023-02-15T18:29:21.721Z,97.37
2023-02-15T18:31:55.295Z,97.23
2023-02-15T18:34:29.002Z,97.65
2023-02-15T18:37:06.212Z,97.71
2023-02-15T18:39:40.699Z,98.18
2023-02-15T18:42:22.251Z,98.12
2023-02-15T18:44:51.024Z,98.63
2023-02-15T18:47:19.638Z,98.92
2023-02-15T18:49:48.783Z,97.73
2023-02-15T18:52:18.208Z,96.70
2023-02-15T18:54:47.837Z,96.53
2023-02-15T18:57:17.223Z,96.57
2023-02-15T18:59:44.830Z,97.72
2023-02-15T19:02:17.284Z,98.86
2023-02-15T19:04:45.435Z,98.97
2023-02-15T19:07:19.378Z,98.59
2023-02-15T19:09:51.124Z,97.63
2023-02-15T19:12:19.489Z,96.94
2023-02-15T19:14:47.446Z,96.86
2023-02-15T19:17:17.762Z,97.64
2023-02-15T19:19:45.931Z,98.56
2023-02-15T19:22:17.095Z,98.89
2023-02-15T19:24:47.867Z,98.30
2023-02-15T19:27:23.603Z,98.17
2023-02-15T19:29:51.263Z,97.45
2023-02-15T19:32:20.150Z,96.74
2023-02-15T19:34:47.871Z,96.63
2023-02-15T19:37:25.243Z,96.33
2023-02-15T19:39:54.911Z,97.29
2023-02-15T19:42:24.118Z,97.38
2023-02-15T19:44:52.425Z,98.30
2023-02-15T19:47:20.371Z,97.80
2023-02-15T19:49:48.233Z,97.27
2023-02-15T19:52:20.563Z,97.64
2023-02-15T19:54:50.347Z,98.75
2023-02-15T19:57:18.085Z,100.00
2023-02-15T19:59:46.534Z,100.00
2023-02-15T20:02:14.855Z,100.00
2023-02-15T20:04:42.690Z,100.00
2023-02-15T20:07:19.790Z,100.00
2023-02-15T20:09:50.214Z,100.00
2023-02-15T20:12:22.466Z,98.56
2023-02-15T20:14:51.049Z,98.66
2023-02-15T20:17:19.370Z,98.34
2023-02-15T20:19:47.221Z,96.35
2023-02-15T20:22:23.471Z,96.65
2023-02-15T20:24:57.633Z,97.17
2023-02-15T20:27:26.508Z,97.24
2023-02-15T20:29:56.890Z,97.36
2023-02-15T20:32:27.407Z,97.53
2023-02-15T20:34:55.037Z,97.23
2023-02-15T20:37:28.318Z,96.07
2023-02-15T20:39:57.993Z,95.43
2023-02-15T20:42:25.785Z,94.95
2023-02-15T20:44:54.034Z,95.80
2023-02-15T20:47:21.553Z,95.60
2023-02-15T20:49:50.737Z,96.39
2023-02-15T20:52:21.352Z,96.54
2023-02-15T20:54:49.116Z,94.91
2023-02-15T20:57:17.956Z,96.19
2023-02-15T20:59:47.867Z,95.98
2023-02-15T21:02:20.851Z,96.70
2023-02-15T21:04:48.709Z,96.46
2023-02-15T21:07:17.626Z,95.89
2023-02-15T21:09:45.497Z,94.38
2023-02-15T21:12:15.381Z,95.55
2023-02-15T21:14:44.654Z,95.61
2023-02-15T21:17:12.798Z,96.33
2023-02-15T21:19:41.299Z,97.24
2023-02-15T21:22:12.951Z,96.06
2023-02-15T21:24:45.565Z,96.51
2023-02-15T21:27:16.895Z,97.42
2023-02-15T21:29:45.956Z,96.96
2023-02-15T21:32:13.873Z,97.09
2023-02-15T21:34:41.629Z,97.51
2023-02-15T21:37:27.317Z,97.53
2023-02-15T21:39:54.848Z,98.42
2023-02-15T21:42:40.317Z,97.46
2023-02-15T21:45:33.773Z,97.23
2023-02-15T21:48:01.451Z,96.82
2023-02-15T21:50:47.528Z,95.73
2023-02-15T21:53:21.674Z,96.83
2023-02-15T21:55:49.680Z,97.90
2023-02-15T21:58:21.210Z,99.15
2023-02-15T22:00:50.417Z,98.46
2023-02-15T22:03:18.270Z,99.29
2023-02-15T22:05:45.815Z,100.00
2023-02-15T22:08:14.420Z,99.89
2023-02-15T22:10:43.177Z,99.98
2023-02-15T22:13:14.846Z,99.62
2023-02-15T22:15:42.779Z,99.37
2023-02-15T22:18:29.700Z,98.46
2023-02-15T22:20:59.663Z,97.98
2023-02-15T22:23:27.445Z,97.65
2023-02-15T22:25:59.657Z,97.80
2023-02-15T22:28:32.101Z,96.97
2023-02-15T22:30:59.690Z,97.39
2023-02-15T22:33:38.049Z,98.32
2023-02-15T22:36:06.094Z,97.83
2023-02-15T22:38:34.168Z,98.06
2023-02-15T22:41:04.986Z,97.22
2023-02-15T22:43:38.290Z,97.37
2023-02-15T22:46:09.170Z,97.45
2023-02-15T22:48:39.717Z,98.33
2023-02-15T22:51:07.266Z,97.33
2023-02-15T22:53:34.781Z,97.37
2023-02-15T22:56:07.487Z,97.54
2023-02-15T22:58:35.388Z,96.96
2023-02-15T23:01:03.777Z,97.70
2023-02-15T23:03:33.547Z,97.94
2023-02-15T23:06:07.452Z,97.79
2023-02-15T23:08:35.813Z,97.91
2023-02-15T23:11:04.026Z,98.28
2023-02-15T23:13:33.809Z,98.03
2023-02-15T23:16:06.897Z,97.76
2023-02-15T23:18:37.801Z,97.66
2023-02-15T23:21:15.856Z,98.21
2023-02-15T23:23:45.429Z,98.26
2023-02-15T23:26:17.940Z,98.83
2023-02-15T23:28:47.021Z,99.07
2023-02-15T23:31:18.865Z,98.75
2023-02-15T23:33:47.080Z,98.60
2023-02-15T23:36:26.249Z,98.08
2023-02-15T23:38:55.050Z,97.58
2023-02-15T23:41:25.103Z,98.06
2023-02-15T23:43:56.395Z,97.92
2023-02-15T23:46:29.144Z,97.51
2023-02-15T23:49:02.096Z,98.11
2023-02-15T23:51:32.940Z,98.92
2023-02-15T23:54:01.136Z,98.46
2023-02-15T23:56:29.607Z,98.76
2023-02-15T23:58:57.191Z,98.95
